sensor_id;sensor_type;location;lat;lon;timestamp;P1;durP1;ratioP1;P2;durP2;ratioP2
54555;SDS011;57291;37.520;15.106;2023-04-08T00:01:01;6.75;;;4.55;;
54555;SDS011;57291;37.520;15.106;2023-04-08T00:03:29;7.60;;;4.68;;
54555;SDS011;57291;37.520;15.106;2023-04-08T00:05:56;7.72;;;5.05;;
54555;SDS011;57291;37.520;15.106;2023-04-08T00:08:24;10.07;;;4.63;;
54555;SDS011;57291;37.520;15.106;2023-04-08T00:10:51;7.80;;;4.10;;
54555;SDS011;57291;37.520;15.106;2023-04-08T00:13:18;5.55;;;3.42;;
54555;SDS011;57291;37.520;15.106;2023-04-08T00:15:45;7.03;;;4.32;;
54555;SDS011;57291;37.520;15.106;2023-04-08T00:18:13;5.85;;;3.65;;
54555;SDS011;57291;37.520;15.106;2023-04-08T00:20:41;6.47;;;4.35;;
54555;SDS011;57291;37.520;15.106;2023-04-08T00:23:09;6.25;;;4.90;;
54555;SDS011;57291;37.520;15.106;2023-04-08T00:25:36;7.47;;;4.50;;
54555;SDS011;57291;37.520;15.106;2023-04-08T00:28:03;12.15;;;5.65;;
54555;SDS011;57291;37.520;15.106;2023-04-08T00:30:30;9.13;;;5.60;;
54555;SDS011;57291;37.520;15.106;2023-04-08T00:32:58;8.80;;;5.40;;
54555;SDS011;57291;37.520;15.106;2023-04-08T00:35:25;11.50;;;6.05;;
54555;SDS011;57291;37.520;15.106;2023-04-08T00:37:52;11.75;;;6.90;;
54555;SDS011;57291;37.520;15.106;2023-04-08T00:40:19;8.82;;;5.53;;
54555;SDS011;57291;37.520;15.106;2023-04-08T00:42:46;8.82;;;6.00;;
54555;SDS011;57291;37.520;15.106;2023-04-08T00:45:14;11.50;;;5.53;;
54555;SDS011;57291;37.520;15.106;2023-04-08T00:47:41;13.70;;;6.53;;
54555;SDS011;57291;37.520;15.106;2023-04-08T00:50:09;9.30;;;6.32;;
54555;SDS011;57291;37.520;15.106;2023-04-08T00:52:37;11.55;;;6.28;;
54555;SDS011;57291;37.520;15.106;2023-04-08T00:55:04;10.27;;;6.43;;
54555;SDS011;57291;37.520;15.106;2023-04-08T00:57:32;14.38;;;7.63;;
54555;SDS011;57291;37.520;15.106;2023-04-08T00:59:59;10.00;;;6.47;;
54555;SDS011;57291;37.520;15.106;2023-04-08T01:05:22;13.20;;;6.63;;
54555;SDS011;57291;37.520;15.106;2023-04-08T01:07:58;10.80;;;6.38;;
54555;SDS011;57291;37.520;15.106;2023-04-08T01:10:29;12.30;;;6.43;;
54555;SDS011;57291;37.520;15.106;2023-04-08T01:13:00;11.13;;;6.50;;
54555;SDS011;57291;37.520;15.106;2023-04-08T01:15:31;9.68;;;6.28;;
54555;SDS011;57291;37.520;15.106;2023-04-08T01:18:01;12.13;;;6.50;;
54555;SDS011;57291;37.520;15.106;2023-04-08T01:20:33;13.73;;;6.72;;
54555;SDS011;57291;37.520;15.106;2023-04-08T01:25:53;12.35;;;5.97;;
54555;SDS011;57291;37.520;15.106;2023-04-08T01:28:22;11.40;;;6.55;;
54555;SDS011;57291;37.520;15.106;2023-04-08T01:30:52;14.77;;;5.82;;
54555;SDS011;57291;37.520;15.106;2023-04-08T01:33:25;9.82;;;6.15;;
54555;SDS011;57291;37.520;15.106;2023-04-08T01:35:54;14.75;;;7.30;;
54555;SDS011;57291;37.520;15.106;2023-04-08T01:38:23;10.18;;;5.97;;
54555;SDS011;57291;37.520;15.106;2023-04-08T01:40:52;9.75;;;5.53;;
54555;SDS011;57291;37.520;15.106;2023-04-08T01:43:21;9.57;;;6.00;;
54555;SDS011;57291;37.520;15.106;2023-04-08T01:45:50;11.27;;;6.07;;
54555;SDS011;57291;37.520;15.106;2023-04-08T01:48:24;8.95;;;5.95;;
54555;SDS011;57291;37.520;15.106;2023-04-08T01:50:53;12.48;;;5.80;;
54555;SDS011;57291;37.520;15.106;2023-04-08T01:53:22;11.05;;;5.65;;
54555;SDS011;57291;37.520;15.106;2023-04-08T01:55:51;9.52;;;5.40;;
54555;SDS011;57291;37.520;15.106;2023-04-08T01:58:27;10.43;;;5.07;;
54555;SDS011;57291;37.520;15.106;2023-04-08T02:01:03;10.10;;;5.18;;
54555;SDS011;57291;37.520;15.106;2023-04-08T02:03:37;9.15;;;5.32;;
54555;SDS011;57291;37.520;15.106;2023-04-08T02:06:04;9.55;;;5.40;;
54555;SDS011;57291;37.520;15.106;2023-04-08T02:08:35;9.13;;;5.35;;
54555;SDS011;57291;37.520;15.106;2023-04-08T02:11:02;8.40;;;5.10;;
54555;SDS011;57291;37.520;15.106;2023-04-08T02:13:30;10.25;;;4.80;;
54555;SDS011;57291;37.520;15.106;2023-04-08T02:16:09;9.10;;;4.68;;
54555;SDS011;57291;37.520;15.106;2023-04-08T02:19:13;10.52;;;5.10;;
54555;SDS011;57291;37.520;15.106;2023-04-08T02:21:46;8.95;;;5.03;;
54555;SDS011;57291;37.520;15.106;2023-04-08T02:24:18;11.83;;;5.43;;
54555;SDS011;57291;37.520;15.106;2023-04-08T02:26:48;7.45;;;4.72;;
54555;SDS011;57291;37.520;15.106;2023-04-08T02:29:19;8.10;;;4.68;;
54555;SDS011;57291;37.520;15.106;2023-04-08T02:31:51;7.18;;;4.80;;
54555;SDS011;57291;37.520;15.106;2023-04-08T02:34:20;9.30;;;5.60;;
54555;SDS011;57291;37.520;15.106;2023-04-08T02:36:48;8.20;;;5.20;;
54555;SDS011;57291;37.520;15.106;2023-04-08T02:39:16;7.90;;;5.32;;
54555;SDS011;57291;37.520;15.106;2023-04-08T02:41:47;9.95;;;5.68;;
54555;SDS011;57291;37.520;15.106;2023-04-08T02:44:14;7.85;;;5.57;;
54555;SDS011;57291;37.520;15.106;2023-04-08T02:46:41;7.68;;;5.25;;
54555;SDS011;57291;37.520;15.106;2023-04-08T02:49:09;10.68;;;5.53;;
54555;SDS011;57291;37.520;15.106;2023-04-08T02:51:36;8.38;;;5.22;;
54555;SDS011;57291;37.520;15.106;2023-04-08T02:54:03;8.68;;;5.15;;
54555;SDS011;57291;37.520;15.106;2023-04-08T02:56:30;9.55;;;5.38;;
54555;SDS011;57291;37.520;15.106;2023-04-08T02:58:58;6.70;;;5.15;;
54555;SDS011;57291;37.520;15.106;2023-04-08T03:01:25;7.03;;;4.72;;
54555;SDS011;57291;37.520;15.106;2023-04-08T03:03:52;7.97;;;4.72;;
54555;SDS011;57291;37.520;15.106;2023-04-08T03:06:19;10.13;;;5.20;;
54555;SDS011;57291;37.520;15.106;2023-04-08T03:08:46;10.35;;;4.78;;
54555;SDS011;57291;37.520;15.106;2023-04-08T03:11:13;8.75;;;4.70;;
54555;SDS011;57291;37.520;15.106;2023-04-08T03:13:41;7.22;;;5.05;;
54555;SDS011;57291;37.520;15.106;2023-04-08T03:16:08;7.03;;;4.47;;
54555;SDS011;57291;37.520;15.106;2023-04-08T03:18:35;7.10;;;4.75;;
54555;SDS011;57291;37.520;15.106;2023-04-08T03:21:02;10.48;;;4.65;;
54555;SDS011;57291;37.520;15.106;2023-04-08T03:23:29;8.30;;;4.82;;
54555;SDS011;57291;37.520;15.106;2023-04-08T03:25:56;7.97;;;4.68;;
54555;SDS011;57291;37.520;15.106;2023-04-08T03:28:23;6.35;;;4.28;;
54555;SDS011;57291;37.520;15.106;2023-04-08T03:30:50;5.75;;;4.15;;
54555;SDS011;57291;37.520;15.106;2023-04-08T03:33:17;9.70;;;4.75;;
54555;SDS011;57291;37.520;15.106;2023-04-08T03:35:45;7.20;;;4.35;;
54555;SDS011;57291;37.520;15.106;2023-04-08T03:38:12;8.63;;;3.97;;
54555;SDS011;57291;37.520;15.106;2023-04-08T03:40:39;6.75;;;4.30;;
54555;SDS011;57291;37.520;15.106;2023-04-08T03:43:06;6.22;;;3.50;;
54555;SDS011;57291;37.520;15.106;2023-04-08T03:45:34;6.45;;;4.13;;
54555;SDS011;57291;37.520;15.106;2023-04-08T03:48:01;8.02;;;4.15;;
54555;SDS011;57291;37.520;15.106;2023-04-08T03:50:29;6.03;;;3.75;;
54555;SDS011;57291;37.520;15.106;2023-04-08T03:52:56;6.53;;;4.13;;
54555;SDS011;57291;37.520;15.106;2023-04-08T03:55:23;9.68;;;3.67;;
54555;SDS011;57291;37.520;15.106;2023-04-08T03:57:51;6.68;;;3.85;;
54555;SDS011;57291;37.520;15.106;2023-04-08T04:00:18;6.70;;;3.60;;
54555;SDS011;57291;37.520;15.106;2023-04-08T04:02:45;8.75;;;3.30;;
54555;SDS011;57291;37.520;15.106;2023-04-08T04:05:12;8.10;;;3.38;;
54555;SDS011;57291;37.520;15.106;2023-04-08T04:07:39;10.45;;;3.97;;
54555;SDS011;57291;37.520;15.106;2023-04-08T04:10:06;7.95;;;3.60;;
54555;SDS011;57291;37.520;15.106;2023-04-08T04:12:34;7.65;;;4.55;;
54555;SDS011;57291;37.520;15.106;2023-04-08T04:15:01;9.38;;;5.03;;
54555;SDS011;57291;37.520;15.106;2023-04-08T04:17:28;9.68;;;4.65;;
54555;SDS011;57291;37.520;15.106;2023-04-08T04:19:56;8.18;;;4.93;;
54555;SDS011;57291;37.520;15.106;2023-04-08T04:22:23;7.28;;;4.20;;
54555;SDS011;57291;37.520;15.106;2023-04-08T04:24:50;6.85;;;4.25;;
54555;SDS011;57291;37.520;15.106;2023-04-08T04:27:17;7.32;;;4.35;;
54555;SDS011;57291;37.520;15.106;2023-04-08T04:29:44;6.35;;;4.03;;
54555;SDS011;57291;37.520;15.106;2023-04-08T04:32:11;9.00;;;4.07;;
54555;SDS011;57291;37.520;15.106;2023-04-08T04:34:38;8.68;;;4.53;;
54555;SDS011;57291;37.520;15.106;2023-04-08T04:37:05;7.70;;;4.40;;
54555;SDS011;57291;37.520;15.106;2023-04-08T04:39:32;7.63;;;4.13;;
54555;SDS011;57291;37.520;15.106;2023-04-08T04:41:59;5.65;;;3.72;;
54555;SDS011;57291;37.520;15.106;2023-04-08T04:44:27;6.60;;;4.07;;
54555;SDS011;57291;37.520;15.106;2023-04-08T04:46:54;5.90;;;3.78;;
54555;SDS011;57291;37.520;15.106;2023-04-08T04:49:21;5.72;;;3.60;;
54555;SDS011;57291;37.520;15.106;2023-04-08T04:51:48;8.07;;;5.22;;
54555;SDS011;57291;37.520;15.106;2023-04-08T04:54:15;8.68;;;4.80;;
54555;SDS011;57291;37.520;15.106;2023-04-08T04:56:42;5.97;;;4.20;;
54555;SDS011;57291;37.520;15.106;2023-04-08T04:59:09;6.95;;;4.38;;
54555;SDS011;57291;37.520;15.106;2023-04-08T05:01:36;6.43;;;4.57;;
54555;SDS011;57291;37.520;15.106;2023-04-08T05:04:06;6.70;;;4.35;;
54555;SDS011;57291;37.520;15.106;2023-04-08T05:06:33;8.98;;;4.65;;
54555;SDS011;57291;37.520;15.106;2023-04-08T05:09:01;12.43;;;7.85;;
54555;SDS011;57291;37.520;15.106;2023-04-08T05:11:28;8.43;;;5.50;;
54555;SDS011;57291;37.520;15.106;2023-04-08T05:13:55;9.73;;;5.30;;
54555;SDS011;57291;37.520;15.106;2023-04-08T05:16:22;7.35;;;4.60;;
54555;SDS011;57291;37.520;15.106;2023-04-08T05:18:50;6.25;;;4.82;;
54555;SDS011;57291;37.520;15.106;2023-04-08T05:21:17;8.65;;;4.40;;
54555;SDS011;57291;37.520;15.106;2023-04-08T05:23:44;8.13;;;5.22;;
54555;SDS011;57291;37.520;15.106;2023-04-08T05:26:11;6.55;;;4.53;;
54555;SDS011;57291;37.520;15.106;2023-04-08T05:28:41;7.97;;;5.15;;
54555;SDS011;57291;37.520;15.106;2023-04-08T05:31:08;6.78;;;4.47;;
54555;SDS011;57291;37.520;15.106;2023-04-08T05:33:37;6.32;;;4.50;;
54555;SDS011;57291;37.520;15.106;2023-04-08T05:36:04;12.45;;;4.82;;
54555;SDS011;57291;37.520;15.106;2023-04-08T05:38:32;8.80;;;4.90;;
54555;SDS011;57291;37.520;15.106;2023-04-08T05:40:59;8.90;;;4.75;;
54555;SDS011;57291;37.520;15.106;2023-04-08T05:43:26;8.13;;;5.47;;
54555;SDS011;57291;37.520;15.106;2023-04-08T05:45:53;8.77;;;5.10;;
54555;SDS011;57291;37.520;15.106;2023-04-08T05:48:21;7.30;;;5.20;;
54555;SDS011;57291;37.520;15.106;2023-04-08T05:50:48;8.52;;;5.25;;
54555;SDS011;57291;37.520;15.106;2023-04-08T05:53:15;8.75;;;4.55;;
54555;SDS011;57291;37.520;15.106;2023-04-08T05:55:42;8.50;;;4.63;;
54555;SDS011;57291;37.520;15.106;2023-04-08T05:58:09;7.60;;;5.03;;
54555;SDS011;57291;37.520;15.106;2023-04-08T06:00:36;10.38;;;5.10;;
54555;SDS011;57291;37.520;15.106;2023-04-08T06:03:03;9.15;;;4.35;;
54555;SDS011;57291;37.520;15.106;2023-04-08T06:05:31;7.28;;;4.95;;
54555;SDS011;57291;37.520;15.106;2023-04-08T06:07:58;9.85;;;5.28;;
54555;SDS011;57291;37.520;15.106;2023-04-08T06:10:26;6.80;;;4.63;;
54555;SDS011;57291;37.520;15.106;2023-04-08T06:12:53;6.78;;;4.35;;
54555;SDS011;57291;37.520;15.106;2023-04-08T06:15:20;5.10;;;3.85;;
54555;SDS011;57291;37.520;15.106;2023-04-08T06:17:47;6.47;;;3.78;;
54555;SDS011;57291;37.520;15.106;2023-04-08T06:20:14;4.78;;;3.25;;
54555;SDS011;57291;37.520;15.106;2023-04-08T06:22:41;8.27;;;3.72;;
54555;SDS011;57291;37.520;15.106;2023-04-08T06:25:09;8.35;;;3.75;;
54555;SDS011;57291;37.520;15.106;2023-04-08T06:27:36;5.35;;;3.45;;
54555;SDS011;57291;37.520;15.106;2023-04-08T06:30:03;6.00;;;3.47;;
54555;SDS011;57291;37.520;15.106;2023-04-08T06:32:30;7.03;;;3.83;;
54555;SDS011;57291;37.520;15.106;2023-04-08T06:34:57;6.43;;;3.30;;
54555;SDS011;57291;37.520;15.106;2023-04-08T06:37:24;5.65;;;3.35;;
54555;SDS011;57291;37.520;15.106;2023-04-08T06:39:51;6.60;;;4.45;;
54555;SDS011;57291;37.520;15.106;2023-04-08T06:42:18;8.63;;;4.38;;
54555;SDS011;57291;37.520;15.106;2023-04-08T06:45:06;9.15;;;6.07;;
54555;SDS011;57291;37.520;15.106;2023-04-08T06:47:34;9.77;;;6.25;;
54555;SDS011;57291;37.520;15.106;2023-04-08T06:50:01;14.50;;;8.25;;
54555;SDS011;57291;37.520;15.106;2023-04-08T06:52:28;10.27;;;7.22;;
54555;SDS011;57291;37.520;15.106;2023-04-08T06:54:55;12.90;;;7.07;;
54555;SDS011;57291;37.520;15.106;2023-04-08T06:57:23;10.85;;;6.00;;
54555;SDS011;57291;37.520;15.106;2023-04-08T06:59:50;8.15;;;5.47;;
54555;SDS011;57291;37.520;15.106;2023-04-08T07:02:19;8.77;;;6.60;;
54555;SDS011;57291;37.520;15.106;2023-04-08T07:04:47;8.77;;;5.55;;
54555;SDS011;57291;37.520;15.106;2023-04-08T07:07:15;8.75;;;5.88;;
54555;SDS011;57291;37.520;15.106;2023-04-08T07:09:42;7.88;;;6.13;;
54555;SDS011;57291;37.520;15.106;2023-04-08T07:12:11;13.60;;;6.93;;
54555;SDS011;57291;37.520;15.106;2023-04-08T07:14:38;11.25;;;7.05;;
54555;SDS011;57291;37.520;15.106;2023-04-08T07:17:06;10.77;;;7.45;;
54555;SDS011;57291;37.520;15.106;2023-04-08T07:19:33;10.93;;;7.13;;
54555;SDS011;57291;37.520;15.106;2023-04-08T07:22:02;11.65;;;6.93;;
54555;SDS011;57291;37.520;15.106;2023-04-08T07:24:29;14.70;;;5.80;;
54555;SDS011;57291;37.520;15.106;2023-04-08T07:26:56;14.35;;;6.30;;
54555;SDS011;57291;37.520;15.106;2023-04-08T07:29:23;8.63;;;5.65;;
54555;SDS011;57291;37.520;15.106;2023-04-08T07:31:50;11.93;;;5.10;;
54555;SDS011;57291;37.520;15.106;2023-04-08T07:34:17;9.68;;;4.78;;
54555;SDS011;57291;37.520;15.106;2023-04-08T07:36:44;8.30;;;4.90;;
54555;SDS011;57291;37.520;15.106;2023-04-08T07:39:12;7.35;;;4.50;;
54555;SDS011;57291;37.520;15.106;2023-04-08T07:41:39;6.30;;;3.55;;
54555;SDS011;57291;37.520;15.106;2023-04-08T07:44:06;5.22;;;3.55;;
54555;SDS011;57291;37.520;15.106;2023-04-08T07:46:36;6.90;;;3.80;;
54555;SDS011;57291;37.520;15.106;2023-04-08T07:49:04;5.32;;;3.63;;
54555;SDS011;57291;37.520;15.106;2023-04-08T07:51:32;5.72;;;3.28;;
54555;SDS011;57291;37.520;15.106;2023-04-08T07:54:00;5.70;;;3.30;;
54555;SDS011;57291;37.520;15.106;2023-04-08T07:56:27;6.03;;;3.25;;
54555;SDS011;57291;37.520;15.106;2023-04-08T07:58:54;5.32;;;3.80;;
54555;SDS011;57291;37.520;15.106;2023-04-08T08:01:22;5.43;;;3.05;;
54555;SDS011;57291;37.520;15.106;2023-04-08T08:03:50;5.68;;;3.03;;
54555;SDS011;57291;37.520;15.106;2023-04-08T08:06:19;5.35;;;3.15;;
54555;SDS011;57291;37.520;15.106;2023-04-08T08:08:46;5.68;;;3.15;;
54555;SDS011;57291;37.520;15.106;2023-04-08T08:11:13;3.22;;;2.60;;
54555;SDS011;57291;37.520;15.106;2023-04-08T08:13:40;5.50;;;3.00;;
54555;SDS011;57291;37.520;15.106;2023-04-08T08:16:08;6.72;;;2.65;;
54555;SDS011;57291;37.520;15.106;2023-04-08T08:18:37;6.85;;;2.65;;
54555;SDS011;57291;37.520;15.106;2023-04-08T08:21:06;4.28;;;2.47;;
54555;SDS011;57291;37.520;15.106;2023-04-08T08:23:33;3.15;;;2.35;;
54555;SDS011;57291;37.520;15.106;2023-04-08T08:26:01;6.50;;;2.60;;
54555;SDS011;57291;37.520;15.106;2023-04-08T08:28:33;4.70;;;2.47;;
54555;SDS011;57291;37.520;15.106;2023-04-08T08:31:00;5.50;;;2.55;;
54555;SDS011;57291;37.520;15.106;2023-04-08T08:33:28;5.70;;;2.55;;
54555;SDS011;57291;37.520;15.106;2023-04-08T08:35:55;4.82;;;2.70;;
54555;SDS011;57291;37.520;15.106;2023-04-08T08:38:23;5.78;;;2.92;;
54555;SDS011;57291;37.520;15.106;2023-04-08T08:40:54;6.10;;;2.63;;
54555;SDS011;57291;37.520;15.106;2023-04-08T08:43:23;3.70;;;2.20;;
54555;SDS011;57291;37.520;15.106;2023-04-08T08:45:53;4.50;;;2.28;;
54555;SDS011;57291;37.520;15.106;2023-04-08T08:48:20;4.00;;;2.17;;
54555;SDS011;57291;37.520;15.106;2023-04-08T08:50:47;4.43;;;2.25;;
54555;SDS011;57291;37.520;15.106;2023-04-08T08:53:16;6.78;;;2.60;;
54555;SDS011;57291;37.520;15.106;2023-04-08T08:55:45;7.78;;;2.75;;
54555;SDS011;57291;37.520;15.106;2023-04-08T08:58:15;5.28;;;2.30;;
54555;SDS011;57291;37.520;15.106;2023-04-08T09:00:43;4.50;;;2.40;;
54555;SDS011;57291;37.520;15.106;2023-04-08T09:03:24;5.20;;;2.33;;
54555;SDS011;57291;37.520;15.106;2023-04-08T09:05:57;4.80;;;2.47;;
54555;SDS011;57291;37.520;15.106;2023-04-08T09:11:15;5.70;;;2.58;;
54555;SDS011;57291;37.520;15.106;2023-04-08T09:13:47;7.97;;;2.97;;
54555;SDS011;57291;37.520;15.106;2023-04-08T09:16:15;6.15;;;2.83;;
54555;SDS011;57291;37.520;15.106;2023-04-08T09:18:45;5.97;;;2.60;;
54555;SDS011;57291;37.520;15.106;2023-04-08T09:21:15;4.55;;;2.83;;
54555;SDS011;57291;37.520;15.106;2023-04-08T09:23:44;6.75;;;2.90;;
54555;SDS011;57291;37.520;15.106;2023-04-08T09:26:19;4.10;;;2.20;;
54555;SDS011;57291;37.520;15.106;2023-04-08T09:29:09;5.85;;;2.15;;
54555;SDS011;57291;37.520;15.106;2023-04-08T09:31:54;8.65;;;2.67;;
54555;SDS011;57291;37.520;15.106;2023-04-08T09:34:22;7.43;;;4.38;;
54555;SDS011;57291;37.520;15.106;2023-04-08T09:36:50;9.40;;;5.47;;
54555;SDS011;57291;37.520;15.106;2023-04-08T09:39:18;9.73;;;5.53;;
54555;SDS011;57291;37.520;15.106;2023-04-08T09:41:49;9.57;;;5.85;;
54555;SDS011;57291;37.520;15.106;2023-04-08T09:44:19;8.38;;;5.15;;
54555;SDS011;57291;37.520;15.106;2023-04-08T09:49:27;7.90;;;5.13;;
54555;SDS011;57291;37.520;15.106;2023-04-08T09:57:15;7.60;;;4.38;;
54555;SDS011;57291;37.520;15.106;2023-04-08T09:59:51;10.30;;;5.55;;
54555;SDS011;57291;37.520;15.106;2023-04-08T10:02:24;10.60;;;6.35;;
54555;SDS011;57291;37.520;15.106;2023-04-08T10:04:57;10.57;;;6.32;;
54555;SDS011;57291;37.520;15.106;2023-04-08T10:07:33;13.27;;;7.07;;
54555;SDS011;57291;37.520;15.106;2023-04-08T10:10:01;13.13;;;6.93;;
54555;SDS011;57291;37.520;15.106;2023-04-08T10:12:29;10.10;;;6.20;;
54555;SDS011;57291;37.520;15.106;2023-04-08T10:17:53;10.18;;;6.95;;
54555;SDS011;57291;37.520;15.106;2023-04-08T10:23:04;13.30;;;7.00;;
54555;SDS011;57291;37.520;15.106;2023-04-08T10:25:36;9.93;;;6.13;;
54555;SDS011;57291;37.520;15.106;2023-04-08T10:33:11;8.07;;;5.78;;
54555;SDS011;57291;37.520;15.106;2023-04-08T10:35:42;11.77;;;5.95;;
54555;SDS011;57291;37.520;15.106;2023-04-08T10:38:14;9.98;;;5.75;;
54555;SDS011;57291;37.520;15.106;2023-04-08T10:40:43;8.82;;;5.75;;
54555;SDS011;57291;37.520;15.106;2023-04-08T10:43:12;9.07;;;6.03;;
54555;SDS011;57291;37.520;15.106;2023-04-08T10:45:40;10.52;;;6.05;;
54555;SDS011;57291;37.520;15.106;2023-04-08T10:53:24;8.15;;;5.05;;
54555;SDS011;57291;37.520;15.106;2023-04-08T10:56:13;7.83;;;4.90;;
54555;SDS011;57291;37.520;15.106;2023-04-08T10:58:47;5.72;;;3.10;;
54555;SDS011;57291;37.520;15.106;2023-04-08T11:01:18;4.03;;;2.87;;
54555;SDS011;57291;37.520;15.106;2023-04-08T11:03:45;4.30;;;2.60;;
54555;SDS011;57291;37.520;15.106;2023-04-08T11:06:13;5.18;;;2.80;;
54555;SDS011;57291;37.520;15.106;2023-04-08T11:08:40;4.47;;;2.70;;
54555;SDS011;57291;37.520;15.106;2023-04-08T11:11:07;5.00;;;2.78;;
54555;SDS011;57291;37.520;15.106;2023-04-08T11:13:38;6.32;;;3.00;;
54555;SDS011;57291;37.520;15.106;2023-04-08T11:16:18;4.90;;;2.88;;
54555;SDS011;57291;37.520;15.106;2023-04-08T11:18:47;6.10;;;3.10;;
54555;SDS011;57291;37.520;15.106;2023-04-08T11:21:16;4.32;;;3.17;;
54555;SDS011;57291;37.520;15.106;2023-04-08T11:23:43;6.22;;;2.60;;
54555;SDS011;57291;37.520;15.106;2023-04-08T11:26:10;9.15;;;3.00;;
54555;SDS011;57291;37.520;15.106;2023-04-08T11:28:39;4.72;;;2.67;;
54555;SDS011;57291;37.520;15.106;2023-04-08T11:31:06;8.00;;;3.17;;
54555;SDS011;57291;37.520;15.106;2023-04-08T11:33:35;5.30;;;2.80;;
54555;SDS011;57291;37.520;15.106;2023-04-08T11:36:02;6.10;;;3.00;;
54555;SDS011;57291;37.520;15.106;2023-04-08T11:38:30;5.97;;;3.00;;
54555;SDS011;57291;37.520;15.106;2023-04-08T11:40:57;7.75;;;3.03;;
54555;SDS011;57291;37.520;15.106;2023-04-08T11:43:25;6.40;;;3.17;;
54555;SDS011;57291;37.520;15.106;2023-04-08T11:45:53;3.30;;;2.45;;
54555;SDS011;57291;37.520;15.106;2023-04-08T11:48:20;8.23;;;2.92;;
54555;SDS011;57291;37.520;15.106;2023-04-08T11:50:47;5.70;;;2.70;;
54555;SDS011;57291;37.520;15.106;2023-04-08T11:53:27;5.43;;;2.80;;
54555;SDS011;57291;37.520;15.106;2023-04-08T11:55:55;7.50;;;3.10;;
54555;SDS011;57291;37.520;15.106;2023-04-08T11:58:22;5.20;;;3.00;;
54555;SDS011;57291;37.520;15.106;2023-04-08T12:00:49;4.47;;;2.58;;
54555;SDS011;57291;37.520;15.106;2023-04-08T12:03:16;7.28;;;2.95;;
54555;SDS011;57291;37.520;15.106;2023-04-08T12:05:43;7.47;;;3.22;;
54555;SDS011;57291;37.520;15.106;2023-04-08T12:08:11;7.32;;;3.17;;
54555;SDS011;57291;37.520;15.106;2023-04-08T12:10:39;6.00;;;3.38;;
54555;SDS011;57291;37.520;15.106;2023-04-08T12:13:06;7.90;;;3.20;;
54555;SDS011;57291;37.520;15.106;2023-04-08T12:15:34;5.88;;;3.13;;
54555;SDS011;57291;37.520;15.106;2023-04-08T12:18:01;6.05;;;3.45;;
54555;SDS011;57291;37.520;15.106;2023-04-08T12:20:28;6.90;;;3.30;;
54555;SDS011;57291;37.520;15.106;2023-04-08T12:22:55;9.10;;;4.18;;
54555;SDS011;57291;37.520;15.106;2023-04-08T12:25:22;7.10;;;3.50;;
54555;SDS011;57291;37.520;15.106;2023-04-08T12:27:49;8.02;;;3.25;;
54555;SDS011;57291;37.520;15.106;2023-04-08T12:30:16;8.48;;;3.53;;
54555;SDS011;57291;37.520;15.106;2023-04-08T12:32:43;8.85;;;3.50;;
54555;SDS011;57291;37.520;15.106;2023-04-08T12:35:13;8.18;;;3.10;;
54555;SDS011;57291;37.520;15.106;2023-04-08T12:37:40;8.77;;;3.30;;
54555;SDS011;57291;37.520;15.106;2023-04-08T12:40:07;5.38;;;3.05;;
54555;SDS011;57291;37.520;15.106;2023-04-08T12:42:35;7.47;;;3.25;;
54555;SDS011;57291;37.520;15.106;2023-04-08T12:45:02;9.18;;;2.95;;
54555;SDS011;57291;37.520;15.106;2023-04-08T12:47:29;8.20;;;3.20;;
54555;SDS011;57291;37.520;15.106;2023-04-08T12:49:56;5.78;;;2.90;;
54555;SDS011;57291;37.520;15.106;2023-04-08T12:52:23;6.60;;;2.80;;
54555;SDS011;57291;37.520;15.106;2023-04-08T12:54:51;11.57;;;3.10;;
54555;SDS011;57291;37.520;15.106;2023-04-08T12:57:18;8.38;;;2.90;;
54555;SDS011;57291;37.520;15.106;2023-04-08T12:59:45;7.10;;;2.78;;
54555;SDS011;57291;37.520;15.106;2023-04-08T13:02:12;8.75;;;2.90;;
54555;SDS011;57291;37.520;15.106;2023-04-08T13:04:39;6.75;;;2.50;;
54555;SDS011;57291;37.520;15.106;2023-04-08T13:07:06;5.72;;;2.83;;
54555;SDS011;57291;37.520;15.106;2023-04-08T13:09:33;5.85;;;3.00;;
54555;SDS011;57291;37.520;15.106;2023-04-08T13:12:00;13.32;;;2.90;;
54555;SDS011;57291;37.520;15.106;2023-04-08T13:14:28;6.43;;;2.92;;
54555;SDS011;57291;37.520;15.106;2023-04-08T13:16:55;9.15;;;3.20;;
54555;SDS011;57291;37.520;15.106;2023-04-08T13:19:22;9.05;;;3.25;;
54555;SDS011;57291;37.520;15.106;2023-04-08T13:21:49;7.80;;;2.80;;
54555;SDS011;57291;37.520;15.106;2023-04-08T13:24:16;8.40;;;2.88;;
54555;SDS011;57291;37.520;15.106;2023-04-08T13:26:43;7.15;;;3.10;;
54555;SDS011;57291;37.520;15.106;2023-04-08T13:29:10;9.13;;;2.78;;
54555;SDS011;57291;37.520;15.106;2023-04-08T13:31:37;14.75;;;4.72;;
54555;SDS011;57291;37.520;15.106;2023-04-08T13:34:05;6.38;;;2.67;;
54555;SDS011;57291;37.520;15.106;2023-04-08T13:36:32;7.22;;;2.97;;
54555;SDS011;57291;37.520;15.106;2023-04-08T13:38:59;8.43;;;3.08;;
54555;SDS011;57291;37.520;15.106;2023-04-08T13:41:26;8.18;;;2.55;;
54555;SDS011;57291;37.520;15.106;2023-04-08T13:43:54;7.10;;;2.85;;
54555;SDS011;57291;37.520;15.106;2023-04-08T13:46:22;8.30;;;2.90;;
54555;SDS011;57291;37.520;15.106;2023-04-08T13:48:49;5.05;;;2.50;;
54555;SDS011;57291;37.520;15.106;2023-04-08T13:51:17;9.07;;;2.88;;
54555;SDS011;57291;37.520;15.106;2023-04-08T13:53:44;5.78;;;2.60;;
54555;SDS011;57291;37.520;15.106;2023-04-08T13:56:11;6.10;;;2.80;;
54555;SDS011;57291;37.520;15.106;2023-04-08T13:58:39;9.73;;;2.83;;
54555;SDS011;57291;37.520;15.106;2023-04-08T14:01:06;8.00;;;3.45;;
54555;SDS011;57291;37.520;15.106;2023-04-08T14:03:33;7.45;;;3.30;;
54555;SDS011;57291;37.520;15.106;2023-04-08T14:06:00;8.15;;;2.67;;
54555;SDS011;57291;37.520;15.106;2023-04-08T14:08:28;6.03;;;2.85;;
54555;SDS011;57291;37.520;15.106;2023-04-08T14:10:55;6.43;;;2.70;;
54555;SDS011;57291;37.520;15.106;2023-04-08T14:13:23;8.10;;;2.72;;
54555;SDS011;57291;37.520;15.106;2023-04-08T14:15:50;6.05;;;2.75;;
54555;SDS011;57291;37.520;15.106;2023-04-08T14:18:19;7.28;;;3.15;;
54555;SDS011;57291;37.520;15.106;2023-04-08T14:20:46;9.25;;;3.28;;
54555;SDS011;57291;37.520;15.106;2023-04-08T14:23:13;10.13;;;3.13;;
54555;SDS011;57291;37.520;15.106;2023-04-08T14:25:42;6.63;;;2.90;;
54555;SDS011;57291;37.520;15.106;2023-04-08T14:28:09;9.00;;;3.38;;
54555;SDS011;57291;37.520;15.106;2023-04-08T14:30:37;9.57;;;3.40;;
54555;SDS011;57291;37.520;15.106;2023-04-08T14:33:04;6.55;;;3.20;;
54555;SDS011;57291;37.520;15.106;2023-04-08T14:35:31;7.20;;;3.20;;
54555;SDS011;57291;37.520;15.106;2023-04-08T14:37:59;9.80;;;3.10;;
54555;SDS011;57291;37.520;15.106;2023-04-08T14:40:26;6.20;;;2.83;;
54555;SDS011;57291;37.520;15.106;2023-04-08T14:42:53;8.43;;;3.13;;
54555;SDS011;57291;37.520;15.106;2023-04-08T14:45:20;10.70;;;3.30;;
54555;SDS011;57291;37.520;15.106;2023-04-08T14:47:48;10.18;;;3.53;;
54555;SDS011;57291;37.520;15.106;2023-04-08T14:50:15;6.88;;;2.90;;
54555;SDS011;57291;37.520;15.106;2023-04-08T14:52:42;10.18;;;2.92;;
54555;SDS011;57291;37.520;15.106;2023-04-08T14:55:10;9.15;;;3.10;;
54555;SDS011;57291;37.520;15.106;2023-04-08T14:57:38;9.20;;;3.15;;
54555;SDS011;57291;37.520;15.106;2023-04-08T15:00:05;12.15;;;3.50;;
54555;SDS011;57291;37.520;15.106;2023-04-08T15:02:33;7.30;;;2.83;;
54555;SDS011;57291;37.520;15.106;2023-04-08T15:05:00;13.18;;;3.67;;
54555;SDS011;57291;37.520;15.106;2023-04-08T15:07:27;11.80;;;3.20;;
54555;SDS011;57291;37.520;15.106;2023-04-08T15:09:54;9.43;;;2.90;;